createdAt,value
2018-07-07T00:00:33.145Z,101739.19
2018-07-07T00:03:02.403Z,101741.08
2018-07-07T00:05:31.806Z,101736.72
2018-07-07T00:08:01.215Z,101733.07
2018-07-07T00:10:30.544Z,101737.80
2018-07-07T00:12:59.865Z,101733.03
2018-07-07T00:15:29.234Z,101736.40
2018-07-07T00:17:58.525Z,101737.30
2018-07-07T00:20:27.806Z,101737.94
2018-07-07T00:22:57.051Z,101737.61
2018-07-07T00:25:26.303Z,101735.57
2018-07-07T00:27:55.609Z,101735.89
2018-07-07T00:30:24.880Z,101741.70
2018-07-07T00:32:54.151Z,101733.00
2018-07-07T00:35:23.476Z,101737.23
2018-07-07T00:37:52.552Z,101744.59
2018-07-07T00:40:21.625Z,101737.62
2018-07-07T00:42:51.005Z,101742.73
2018-07-07T00:45:20.251Z,101740.80
2018-07-07T00:47:49.634Z,101742.79
2018-07-07T00:50:18.975Z,101746.98
2018-07-07T00:52:48.309Z,101743.32
2018-07-07T00:55:17.585Z,101746.79
2018-07-07T00:57:46.882Z,101743.74
2018-07-07T01:00:16.237Z,101743.61
2018-07-07T01:02:45.628Z,101749.27
2018-07-07T01:05:36.760Z,101749.47
2018-07-07T01:08:06.266Z,101752.65
2018-07-07T01:10:35.522Z,101754.42
2018-07-07T01:13:04.828Z,101751.08
2018-07-07T01:15:34.244Z,101753.80
2018-07-07T01:18:03.640Z,101754.52
2018-07-07T01:20:33.042Z,101756.94
2018-07-07T01:23:02.460Z,101761.83
2018-07-07T01:25:31.581Z,101759.59
2018-07-07T01:28:01.101Z,101758.28
2018-07-07T01:30:30.523Z,101757.34
2018-07-07T01:32:59.909Z,101760.47
2018-07-07T01:35:29.162Z,101757.84
2018-07-07T01:37:58.462Z,101761.78
2018-07-07T01:40:27.696Z,101759.55
2018-07-07T01:42:57.085Z,101750.81
2018-07-07T01:45:26.339Z,101756.16
2018-07-07T01:47:55.665Z,101753.57
2018-07-07T01:50:24.888Z,101742.25
2018-07-07T01:52:54.653Z,101750.03
2018-07-07T01:55:23.887Z,101748.30
2018-07-07T01:57:53.164Z,101751.08
2018-07-07T02:00:22.493Z,101746.13
2018-07-07T02:02:51.776Z,101753.34
2018-07-07T02:05:21.081Z,101746.66
2018-07-07T02:07:50.351Z,101743.22
2018-07-07T02:10:19.699Z,101746.23
2018-07-07T02:12:48.977Z,101738.67
2018-07-07T02:15:18.275Z,101742.41
2018-07-07T02:17:47.593Z,101740.39
2018-07-07T02:20:16.852Z,101736.89
2018-07-07T02:22:46.188Z,101738.77
2018-07-07T02:25:15.542Z,101747.74
2018-07-07T02:27:44.785Z,101746.61
2018-07-07T02:30:14.038Z,101746.36
2018-07-07T02:32:43.270Z,101737.65
2018-07-07T02:35:12.387Z,101753.57
2018-07-07T02:37:41.685Z,101748.92
2018-07-07T02:40:10.950Z,101744.72
2018-07-07T02:42:40.220Z,101749.59
2018-07-07T02:45:09.603Z,101743.08
2018-07-07T02:47:38.847Z,101746.09
2018-07-07T02:50:08.169Z,101744.88
2018-07-07T02:52:37.376Z,101747.73
2018-07-07T02:55:06.654Z,101745.41
2018-07-07T02:57:35.925Z,101747.73
2018-07-07T03:00:05.336Z,101748.02
2018-07-07T03:02:34.720Z,101747.95
2018-07-07T03:05:04.090Z,101751.10
2018-07-07T03:07:33.457Z,101753.41
2018-07-07T03:10:02.837Z,101750.31
2018-07-07T03:12:32.204Z,101750.94
2018-07-07T03:15:01.631Z,101748.25
2018-07-07T03:17:31.137Z,101748.11
2018-07-07T03:20:00.447Z,101755.37
2018-07-07T03:22:29.480Z,101751.80
2018-07-07T03:24:58.777Z,101755.98
2018-07-07T03:27:28.030Z,101760.31
2018-07-07T03:29:57.274Z,101763.73
2018-07-07T03:32:26.533Z,101760.58
2018-07-07T03:34:55.803Z,101767.47
2018-07-07T03:37:25.148Z,101764.99
2018-07-07T03:39:54.411Z,101762.16
2018-07-07T03:42:23.690Z,101770.66
2018-07-07T03:44:52.949Z,101777.26
2018-07-07T03:47:22.231Z,101773.35
2018-07-07T03:49:51.532Z,101779.57
2018-07-07T03:52:20.834Z,101781.80
2018-07-07T03:54:50.079Z,101774.38
2018-07-07T03:57:19.430Z,101775.38
2018-07-07T03:59:48.735Z,101778.89
2018-07-07T04:02:17.997Z,101773.50
2018-07-07T04:04:47.299Z,101778.19
2018-07-07T04:07:16.589Z,101776.55
2018-07-07T04:09:45.883Z,101784.78
2018-07-07T04:12:15.240Z,101786.59
2018-07-07T04:14:44.514Z,101790.05
2018-07-07T04:17:13.817Z,101793.60
2018-07-07T04:19:43.169Z,101799.61
2018-07-07T04:22:12.420Z,101799.00
2018-07-07T04:24:41.830Z,101800.97
2018-07-07T04:27:11.073Z,101804.88
2018-07-07T04:29:40.352Z,101796.81
2018-07-07T04:32:09.646Z,101808.09
2018-07-07T04:34:39.055Z,101809.95
2018-07-07T04:37:08.334Z,101808.67
2018-07-07T04:39:37.699Z,101809.13
2018-07-07T04:42:07.023Z,101808.34
2018-07-07T04:44:36.397Z,101807.44
2018-07-07T04:47:05.747Z,101805.25
2018-07-07T04:49:35.120Z,101809.13
2018-07-07T04:52:04.446Z,101812.83
2018-07-07T04:54:33.706Z,101807.64
2018-07-07T04:57:03.130Z,101814.46
2018-07-07T04:59:32.591Z,101819.20
2018-07-07T05:02:01.953Z,101820.97
2018-07-07T05:04:31.636Z,101823.89
2018-07-07T05:07:00.946Z,101823.19
2018-07-07T05:09:30.305Z,101820.77
2018-07-07T05:11:59.728Z,101829.30
2018-07-07T05:14:29.090Z,101828.73
2018-07-07T05:16:58.349Z,101832.80
2018-07-07T05:19:27.698Z,101830.37
2018-07-07T05:21:57.164Z,101832.42
2018-07-07T05:24:26.321Z,101829.06
2018-07-07T05:26:55.698Z,101835.37
2018-07-07T05:29:24.952Z,101834.98
2018-07-07T05:31:54.542Z,101834.59
2018-07-07T05:34:23.847Z,101832.41
2018-07-07T05:36:53.266Z,101840.81
2018-07-07T05:39:22.367Z,101831.44
2018-07-07T05:41:51.643Z,101829.53
2018-07-07T05:44:20.967Z,101834.48
2018-07-07T05:46:50.283Z,101828.88
2018-07-07T05:49:19.682Z,101826.69
2018-07-07T05:51:48.948Z,101834.05
2018-07-07T05:54:18.286Z,101835.90
2018-07-07T05:56:47.642Z,101833.02
2018-07-07T05:59:17.065Z,101833.45
2018-07-07T06:01:46.576Z,101841.86
2018-07-07T06:04:15.966Z,101845.40
2018-07-07T06:06:45.274Z,101848.16
2018-07-07T06:09:14.672Z,101839.84
2018-07-07T06:11:43.960Z,101847.25
2018-07-07T06:14:13.213Z,101840.76
2018-07-07T06:16:42.465Z,101845.73
2018-07-07T06:19:11.732Z,101841.48
2018-07-07T06:21:41.034Z,101849.59
2018-07-07T06:24:10.396Z,101848.06
2018-07-07T06:26:39.685Z,101853.39
2018-07-07T06:29:08.969Z,101850.52
2018-07-07T06:31:38.269Z,101854.39
2018-07-07T06:34:07.652Z,101855.63
2018-07-07T06:36:37.058Z,101851.69
2018-07-07T06:39:07.513Z,101841.52
2018-07-07T06:41:36.797Z,101845.52
2018-07-07T06:44:06.022Z,101853.06
2018-07-07T06:46:35.284Z,101851.53
2018-07-07T06:49:04.565Z,101851.25
2018-07-07T06:51:33.883Z,101853.69
2018-07-07T06:54:03.264Z,101850.66
2018-07-07T06:56:32.515Z,101853.33
2018-07-07T06:59:02.020Z,101854.00
2018-07-07T07:01:32.112Z,101861.51
2018-07-07T07:04:01.535Z,101860.80
2018-07-07T07:06:30.900Z,101853.82
2018-07-07T07:09:00.269Z,101861.00
2018-07-07T07:11:29.669Z,101861.35
2018-07-07T07:13:59.034Z,101858.52
2018-07-07T07:16:28.383Z,101862.98
2018-07-07T07:18:57.722Z,101863.61
2018-07-07T07:21:27.061Z,101863.39
2018-07-07T07:23:56.403Z,101859.94
2018-07-07T07:26:25.709Z,101854.30
2018-07-07T07:28:55.562Z,101856.94
2018-07-07T07:31:24.929Z,101866.97
2018-07-07T07:33:54.310Z,101872.45
2018-07-07T07:36:39.048Z,101871.78
2018-07-07T07:39:08.342Z,101873.52
2018-07-07T07:41:37.692Z,101867.17
2018-07-07T07:44:07.061Z,101869.79
2018-07-07T07:46:36.399Z,101871.58
2018-07-07T07:49:05.756Z,101868.30
2018-07-07T07:51:35.100Z,101862.75
2018-07-07T07:54:04.377Z,101866.75
2018-07-07T07:56:33.726Z,101866.70
2018-07-07T07:59:03.198Z,101869.07
2018-07-07T08:01:32.600Z,101864.30
2018-07-07T08:04:02.085Z,101864.56
2018-07-07T08:06:31.441Z,101868.20
2018-07-07T08:09:00.918Z,101870.77
2018-07-07T08:11:31.775Z,101868.17
2018-07-07T08:14:01.088Z,101870.64
2018-07-07T08:16:30.360Z,101861.59
2018-07-07T08:18:59.861Z,101867.27
2018-07-07T08:21:29.159Z,101863.11
2018-07-07T08:24:01.065Z,101867.96
2018-07-07T08:26:30.507Z,101866.86
2018-07-07T08:28:59.981Z,101867.19
2018-07-07T08:31:29.384Z,101866.92
2018-07-07T08:33:58.776Z,101861.99
2018-07-07T08:36:28.866Z,101872.81
2018-07-07T08:38:58.391Z,101868.18
2018-07-07T08:41:27.830Z,101875.02
2018-07-07T08:43:57.245Z,101871.66
2018-07-07T08:46:26.616Z,101862.89
2018-07-07T08:48:55.967Z,101865.61
2018-07-07T08:51:25.441Z,101863.45
2018-07-07T08:53:54.831Z,101860.83
2018-07-07T08:56:24.108Z,101863.02
2018-07-07T08:58:53.526Z,101865.58
2018-07-07T09:01:22.836Z,101871.13
2018-07-07T09:03:52.348Z,101864.81
2018-07-07T09:06:21.686Z,101866.20
2018-07-07T09:08:50.986Z,101861.74
2018-07-07T09:11:20.358Z,101865.45
2018-07-07T09:13:50.183Z,101859.38
2018-07-07T09:16:19.557Z,101861.30
2018-07-07T09:18:50.996Z,101862.42
2018-07-07T09:21:20.368Z,101866.23
2018-07-07T09:23:49.718Z,101864.86
2018-07-07T09:26:19.179Z,101856.64
2018-07-07T09:28:48.513Z,101859.50
2018-07-07T09:31:17.793Z,101855.56
2018-07-07T09:33:47.046Z,101851.25
2018-07-07T09:36:16.645Z,101853.81
2018-07-07T09:38:46.021Z,101860.95
2018-07-07T09:41:15.316Z,101852.20
2018-07-07T09:43:44.631Z,101854.58
2018-07-07T09:46:13.906Z,101847.94
2018-07-07T09:48:43.288Z,101842.48
2018-07-07T09:51:12.579Z,101842.55
2018-07-07T09:53:41.830Z,101839.78
2018-07-07T09:56:11.161Z,101846.92
2018-07-07T09:58:40.399Z,101842.86
2018-07-07T10:01:09.758Z,101843.19
2018-07-07T10:03:39.049Z,101840.67
2018-07-07T10:06:08.425Z,101846.22
2018-07-07T10:08:37.727Z,101836.11
2018-07-07T10:11:07.094Z,101842.15
2018-07-07T10:13:36.507Z,101844.35
2018-07-07T10:16:05.901Z,101840.67
2018-07-07T10:18:35.478Z,101843.39
2018-07-07T10:21:04.969Z,101845.55
2018-07-07T10:23:34.670Z,101833.94
2018-07-07T10:26:04.118Z,101835.97
2018-07-07T10:28:33.562Z,101845.55
2018-07-07T10:31:02.985Z,101838.77
2018-07-07T10:33:32.430Z,101845.35
2018-07-07T10:36:01.921Z,101841.53
2018-07-07T10:38:31.380Z,101840.51
2018-07-07T10:41:00.913Z,101831.89
2018-07-07T10:43:30.065Z,101837.95
2018-07-07T10:45:59.598Z,101838.46
2018-07-07T10:48:29.011Z,101834.08
2018-07-07T10:50:58.414Z,101834.41
2018-07-07T10:53:28.381Z,101844.86
2018-07-07T10:55:57.718Z,101831.72
2018-07-07T10:58:27.042Z,101843.53
2018-07-07T11:00:56.337Z,101838.67
2018-07-07T11:03:25.441Z,101842.67
2018-07-07T11:05:54.769Z,101845.88
2018-07-07T11:08:24.345Z,101828.97
2018-07-07T11:10:53.895Z,101836.40
2018-07-07T11:13:25.201Z,101832.70
2018-07-07T11:15:54.492Z,101829.15
2018-07-07T11:18:23.760Z,101824.27
2018-07-07T11:20:53.083Z,101828.37
2018-07-07T11:23:22.331Z,101824.95
2018-07-07T11:25:51.672Z,101826.29
2018-07-07T11:28:20.933Z,101821.56
2018-07-07T11:30:50.324Z,101820.56
2018-07-07T11:33:19.618Z,101825.81
2018-07-07T11:35:49.001Z,101819.22
2018-07-07T11:38:18.421Z,101819.89
2018-07-07T11:40:47.728Z,101811.94
2018-07-07T11:43:17.049Z,101820.90
2018-07-07T11:45:46.332Z,101820.88
2018-07-07T11:48:15.639Z,101826.24
2018-07-07T11:50:45.023Z,101819.02
2018-07-07T11:53:14.271Z,101818.20
2018-07-07T11:55:43.564Z,101815.77
2018-07-07T11:58:12.984Z,101811.09
2018-07-07T12:00:42.228Z,101818.89
2018-07-07T12:03:11.560Z,101818.72
2018-07-07T12:05:40.980Z,101811.78
2018-07-07T12:08:13.989Z,101805.18
2018-07-07T12:10:39.300Z,101812.33
2018-07-07T12:13:08.638Z,101809.02
2018-07-07T12:15:37.901Z,101805.03
2018-07-07T12:18:07.253Z,101808.84
2018-07-07T12:20:36.604Z,101803.09
2018-07-07T12:23:05.906Z,101802.94
2018-07-07T12:25:35.189Z,101800.52
2018-07-07T12:28:04.503Z,101800.84
2018-07-07T12:30:33.923Z,101795.55
2018-07-07T12:33:03.367Z,101790.44
2018-07-07T12:35:32.760Z,101802.02
2018-07-07T12:38:02.036Z,101806.28
2018-07-07T12:40:31.524Z,101803.09
2018-07-07T12:43:01.112Z,101797.87
2018-07-07T12:45:30.500Z,101796.34
2018-07-07T12:47:59.997Z,101799.94
2018-07-07T12:50:29.361Z,101797.55
2018-07-07T12:52:58.877Z,101796.86
2018-07-07T12:55:28.235Z,101799.94
2018-07-07T12:57:57.622Z,101792.61
2018-07-07T13:00:26.962Z,101791.72
2018-07-07T13:02:56.340Z,101794.32
2018-07-07T13:05:25.630Z,101783.52
2018-07-07T13:07:54.695Z,101788.11
2018-07-07T13:10:23.969Z,101794.31
2018-07-07T13:12:53.287Z,101781.59
2018-07-07T13:15:22.570Z,101788.34
2018-07-07T13:17:51.915Z,101799.11
2018-07-07T13:20:22.168Z,101801.33
2018-07-07T13:22:54.072Z,101805.84
2018-07-07T13:25:23.451Z,101794.48
2018-07-07T13:27:52.833Z,101794.88
2018-07-07T13:30:22.282Z,101793.05
2018-07-07T13:32:51.681Z,101794.40
2018-07-07T13:35:20.802Z,101796.58
2018-07-07T13:37:50.258Z,101796.59
2018-07-07T13:40:19.707Z,101800.90
2018-07-07T13:42:49.028Z,101805.94
2018-07-07T13:45:18.599Z,101792.30
2018-07-07T13:47:47.888Z,101787.85
2018-07-07T13:50:17.249Z,101799.89
2018-07-07T13:52:46.579Z,101808.95
2018-07-07T13:55:15.968Z,101795.33
2018-07-07T13:57:45.407Z,101792.69
2018-07-07T14:00:14.690Z,101789.72
2018-07-07T14:02:44.051Z,101790.31
2018-07-07T14:05:13.397Z,101799.14
2018-07-07T14:07:42.685Z,101792.39
2018-07-07T14:10:12.149Z,101781.09
2018-07-07T14:12:41.649Z,101785.22
2018-07-07T14:15:11.000Z,101792.02
2018-07-07T14:17:41.168Z,101798.31
2018-07-07T14:20:10.411Z,101788.94
2018-07-07T14:22:39.743Z,101789.02
2018-07-07T14:25:09.121Z,101790.17
2018-07-07T14:27:38.585Z,101796.68
2018-07-07T14:30:07.971Z,101793.41
2018-07-07T14:32:37.285Z,101784.38
2018-07-07T14:35:06.693Z,101786.84
2018-07-07T14:37:36.616Z,101797.88
2018-07-07T14:40:06.151Z,101786.65
2018-07-07T14:42:57.508Z,101787.59
2018-07-07T14:45:31.100Z,101792.97
2018-07-07T14:48:02.798Z,101782.92
2018-07-07T14:50:32.167Z,101782.28
2018-07-07T14:53:01.519Z,101776.22
2018-07-07T14:55:31.028Z,101766.38
2018-07-07T14:58:00.363Z,101765.56
2018-07-07T15:00:29.834Z,101766.05
2018-07-07T15:02:59.247Z,101764.18
2018-07-07T15:05:28.706Z,101764.19
2018-07-07T15:07:58.055Z,101769.86
2018-07-07T15:10:27.425Z,101763.58
2018-07-07T15:12:56.732Z,101777.78
2018-07-07T15:15:26.151Z,101771.21
2018-07-07T15:17:55.434Z,101770.57
2018-07-07T15:20:24.789Z,101764.45
2018-07-07T15:22:54.098Z,101778.70
2018-07-07T15:25:23.374Z,101773.59
2018-07-07T15:27:52.757Z,101765.70
2018-07-07T15:30:22.091Z,101764.19
2018-07-07T15:32:51.455Z,101767.61
2018-07-07T15:35:20.759Z,101766.98
2018-07-07T15:37:50.113Z,101760.17
2018-07-07T15:40:20.958Z,101764.74
2018-07-07T15:42:50.343Z,101759.05
2018-07-07T15:45:19.932Z,101750.38
2018-07-07T15:47:49.266Z,101745.79
2018-07-07T15:50:18.625Z,101757.74
2018-07-07T15:52:48.883Z,101755.61
2018-07-07T15:55:18.163Z,101754.97
2018-07-07T15:57:47.551Z,101745.17
2018-07-07T16:00:16.899Z,101758.63
2018-07-07T16:02:46.450Z,101746.16
2018-07-07T16:05:15.730Z,101738.66
2018-07-07T16:07:45.023Z,101742.08
2018-07-07T16:10:14.349Z,101744.42
2018-07-07T16:12:44.514Z,101744.56
2018-07-07T16:15:13.773Z,101736.06
2018-07-07T16:17:43.191Z,101737.20
2018-07-07T16:20:12.528Z,101740.61
2018-07-07T16:22:41.820Z,101735.99
2018-07-07T16:25:11.098Z,101741.93
2018-07-07T16:27:40.369Z,101748.37
2018-07-07T16:30:09.638Z,101748.39
2018-07-07T16:32:38.917Z,101749.12
2018-07-07T16:35:08.208Z,101739.17
2018-07-07T16:37:37.469Z,101748.86
2018-07-07T16:40:06.871Z,101745.97
2018-07-07T16:42:38.306Z,101747.86
2018-07-07T16:45:07.745Z,101738.25
2018-07-07T16:47:37.298Z,101741.30
2018-07-07T16:50:07.662Z,101744.56
2018-07-07T16:52:36.993Z,101737.89
2018-07-07T16:55:06.317Z,101741.42
2018-07-07T16:57:36.192Z,101739.53
2018-07-07T17:00:05.513Z,101735.95
2018-07-07T17:02:34.972Z,101734.80
2018-07-07T17:05:04.394Z,101739.95
2018-07-07T17:07:34.010Z,101737.17
2018-07-07T17:10:03.853Z,101737.06
2018-07-07T17:12:33.257Z,101739.72
2018-07-07T17:15:03.285Z,101738.62
2018-07-07T17:17:34.087Z,101739.81
2018-07-07T17:20:03.467Z,101739.58
2018-07-07T17:22:32.779Z,101741.92
2018-07-07T17:25:02.038Z,101743.59
2018-07-07T17:27:31.564Z,101741.69
2018-07-07T17:30:00.991Z,101735.41
2018-07-07T17:32:31.374Z,101743.06
2018-07-07T17:35:01.695Z,101737.64
2018-07-07T17:37:30.930Z,101738.88
2018-07-07T17:40:00.450Z,101742.83
2018-07-07T17:42:31.009Z,101744.63
2018-07-07T17:45:01.240Z,101747.35
2018-07-07T17:47:30.806Z,101750.11
2018-07-07T17:50:02.457Z,101755.12
2018-07-07T17:52:33.294Z,101758.46
2018-07-07T17:55:03.770Z,101754.92
2018-07-07T17:57:33.225Z,101750.05
2018-07-07T18:00:02.692Z,101752.91
2018-07-07T18:02:32.138Z,101751.77
2018-07-07T18:05:01.560Z,101760.88
2018-07-07T18:07:30.991Z,101752.45
2018-07-07T18:10:00.299Z,101764.60
2018-07-07T18:12:29.789Z,101766.25
2018-07-07T18:14:59.403Z,101759.60
2018-07-07T18:17:28.819Z,101766.11
2018-07-07T18:19:58.202Z,101763.43
2018-07-07T18:22:27.512Z,101764.45
2018-07-07T18:24:56.792Z,101770.22
2018-07-07T18:27:26.084Z,101768.77
2018-07-07T18:29:55.390Z,101764.67
2018-07-07T18:32:24.658Z,101763.61
2018-07-07T18:34:53.922Z,101756.34
2018-07-07T18:37:23.254Z,101768.92
2018-07-07T18:39:52.502Z,101767.63
2018-07-07T18:42:21.824Z,101767.47
2018-07-07T18:44:51.157Z,101770.74
2018-07-07T18:47:20.465Z,101772.06
2018-07-07T18:49:49.767Z,101773.31
2018-07-07T18:52:19.046Z,101778.45
2018-07-07T18:54:48.401Z,101775.46
2018-07-07T18:57:17.710Z,101772.53
2018-07-07T18:59:46.985Z,101775.20
2018-07-07T19:02:16.246Z,101773.31
2018-07-07T19:04:45.613Z,101772.50
2018-07-07T19:07:14.843Z,101778.87
2018-07-07T19:09:44.197Z,101784.38
2018-07-07T19:12:13.449Z,101777.28
2018-07-07T19:14:42.703Z,101777.53
2018-07-07T19:17:12.284Z,101777.64
2018-07-07T19:19:41.603Z,101777.83
2018-07-07T19:22:16.263Z,101780.59
2018-07-07T19:24:50.830Z,101782.77
2018-07-07T19:27:20.077Z,101781.05
2018-07-07T19:29:49.397Z,101782.47
2018-07-07T19:32:24.185Z,101781.03
2018-07-07T19:34:58.721Z,101786.36
2018-07-07T19:37:28.239Z,101788.42
2018-07-07T19:39:57.993Z,101793.42
2018-07-07T19:42:27.352Z,101796.19
2018-07-07T19:44:56.740Z,101796.39
2018-07-07T19:47:26.054Z,101794.75
2018-07-07T19:49:55.393Z,101797.27
2018-07-07T19:52:24.734Z,101801.25
2018-07-07T19:54:55.538Z,101800.86
2018-07-07T19:57:26.440Z,101794.96
2018-07-07T19:59:56.035Z,101803.73
2018-07-07T20:02:25.272Z,101798.67
2018-07-07T20:04:54.840Z,101805.66
2018-07-07T20:07:24.075Z,101805.22
2018-07-07T20:09:53.318Z,101804.58
2018-07-07T20:12:22.604Z,101801.27
2018-07-07T20:14:51.658Z,101804.27
2018-07-07T20:18:35.506Z,101803.82
2018-07-07T20:21:27.117Z,101803.66
2018-07-07T20:23:56.416Z,101803.42
2018-07-07T20:26:25.737Z,101808.20
2018-07-07T20:28:57.419Z,101809.70
2018-07-07T20:31:26.692Z,101806.66
2018-07-07T20:33:56.047Z,101810.02
2018-07-07T20:36:25.342Z,101815.62
2018-07-07T20:38:54.631Z,101805.93
2018-07-07T20:41:24.022Z,101817.99
2018-07-07T20:43:55.580Z,101816.91
2018-07-07T20:46:25.030Z,101818.70
2018-07-07T20:48:54.474Z,101814.05
2018-07-07T20:51:23.832Z,101817.95
2018-07-07T20:53:53.225Z,101818.88
2018-07-07T20:56:22.615Z,101814.91
2018-07-07T20:58:52.259Z,101822.28
2018-07-07T21:01:21.677Z,101818.65
2018-07-07T21:03:50.976Z,101816.25
2018-07-07T21:06:20.165Z,101822.91
2018-07-07T21:08:49.522Z,101817.80
2018-07-07T21:11:18.933Z,101826.58
2018-07-07T21:13:48.377Z,101825.91
2018-07-07T21:16:17.729Z,101820.84
2018-07-07T21:18:47.183Z,101829.47
2018-07-07T21:21:16.663Z,101823.50
2018-07-07T21:23:46.173Z,101825.06
2018-07-07T21:26:15.253Z,101822.16
2018-07-07T21:28:44.805Z,101827.13
2018-07-07T21:31:14.324Z,101825.66
2018-07-07T21:33:43.759Z,101820.84
2018-07-07T21:36:13.307Z,101828.68
2018-07-07T21:38:42.672Z,101826.98
2018-07-07T21:41:12.068Z,101828.62
2018-07-07T21:43:41.462Z,101827.08
2018-07-07T21:46:10.839Z,101833.19
2018-07-07T21:48:40.540Z,101831.49
2018-07-07T21:51:10.058Z,101832.95
2018-07-07T21:53:39.532Z,101828.36
2018-07-07T21:56:08.792Z,101831.19
2018-07-07T21:58:38.307Z,101836.24
2018-07-07T22:01:49.478Z,101835.92
2018-07-07T22:04:24.138Z,101841.29
2018-07-07T22:06:58.747Z,101839.01
2018-07-07T22:09:28.173Z,101843.56
2018-07-07T22:11:57.750Z,101841.14
2018-07-07T22:14:26.962Z,101838.28
2018-07-07T22:16:56.253Z,101842.78
2018-07-07T22:19:25.624Z,101848.37
2018-07-07T22:22:02.461Z,101849.11
2018-07-07T22:24:32.039Z,101842.61
2018-07-07T22:27:04.430Z,101849.94
2018-07-07T22:29:33.841Z,101849.80
2018-07-07T22:32:05.435Z,101855.16
2018-07-07T22:34:37.072Z,101844.97
2018-07-07T22:37:06.542Z,101852.73
2018-07-07T22:39:36.923Z,101852.77
2018-07-07T22:42:08.262Z,101851.98
2018-07-07T22:44:38.304Z,101856.21
2018-07-07T22:47:07.441Z,101857.95
2018-07-07T22:49:36.749Z,101862.08
2018-07-07T22:52:08.001Z,101864.98
2018-07-07T22:54:37.328Z,101859.45
2018-07-07T22:57:06.604Z,101865.92
2018-07-07T22:59:35.951Z,101866.38
2018-07-07T23:02:05.293Z,101865.81
2018-07-07T23:04:34.726Z,101860.74
2018-07-07T23:07:04.128Z,101861.84
2018-07-07T23:09:33.422Z,101855.67
2018-07-07T23:12:02.989Z,101860.80
2018-07-07T23:14:32.417Z,101866.69
2018-07-07T23:17:02.396Z,101862.32
2018-07-07T23:19:31.788Z,101864.05
2018-07-07T23:22:01.317Z,101857.98
2018-07-07T23:24:30.682Z,101857.25
2018-07-07T23:27:00.060Z,101863.79
2018-07-07T23:29:29.384Z,101859.30
2018-07-07T23:31:58.669Z,101854.97
2018-07-07T23:34:28.066Z,101853.92
2018-07-07T23:36:57.350Z,101860.71
2018-07-07T23:39:26.614Z,101854.85
2018-07-07T23:41:55.901Z,101854.44
2018-07-07T23:44:25.154Z,101854.23
2018-07-07T23:46:54.481Z,101860.83
2018-07-07T23:49:23.787Z,101862.07
2018-07-07T23:51:53.059Z,101859.30
2018-07-07T23:54:22.386Z,101860.02
2018-07-07T23:56:51.637Z,101861.48
2018-07-07T23:59:21.027Z,101856.22
